BLY2X EGNH-EGNH
Flight info
| Callsign | BLY2X |
|---|---|
| Flight time | 1h 21m |
| Altitude | 18000 |
| Route | BELOX DCT REMSI DCT NINEB DCT 542856N0043303W DCT MIKEL DCT NOCAD DCT ABLUC DCT BILVO |
| Aircraft | C700/M-SBDGHM1RWXY/LB2 |
Departure
| Time | 2026-04-28 17:23 |
|---|---|
| Airport | Blackpool Airport (EGNH) |
Arrival
| Time | 2026-04-28 18:44 |
|---|---|
| Airport | Blackpool Airport (EGNH) |
| Time | Latitude | Longitude | Altitude | Speed | Heading |
|---|---|---|---|---|---|
| 2026-04-28 16:45 | 53.77837 | -3.03842 | 44 ft | 0 kts | 163° |
| 2026-04-28 17:18 | 53.77835 | -3.03841 | 44 ft | 2 kts | 163° |
| 2026-04-28 17:18 | 53.77808 | -3.03831 | 44 ft | 6 kts | 178° |
| 2026-04-28 17:18 | 53.77781 | -3.03888 | 44 ft | 9 kts | 256° |
| 2026-04-28 17:18 | 53.77767 | -3.03983 | 44 ft | 9 kts | 256° |
| 2026-04-28 17:19 | 53.77727 | -3.04076 | 44 ft | 11 kts | 218° |
| 2026-04-28 17:19 | 53.77653 | -3.04155 | 44 ft | 14 kts | 211° |
| 2026-04-28 17:19 | 53.77562 | -3.04248 | 44 ft | 17 kts | 212° |
| 2026-04-28 17:19 | 53.77457 | -3.04355 | 44 ft | 19 kts | 210° |
| 2026-04-28 17:20 | 53.77352 | -3.04397 | 44 ft | 9 kts | 174° |
| 2026-04-28 17:20 | 53.77313 | -3.04386 | 44 ft | 0 kts | 165° |
| 2026-04-28 17:21 | 53.77306 | -3.04383 | 44 ft | 4 kts | 165° |
| 2026-04-28 17:22 | 53.77222 | -3.04250 | 42 ft | 0 kts | 94° |
| 2026-04-28 17:22 | 53.77221 | -3.04239 | 42 ft | 12 kts | 94° |
| 2026-04-28 17:22 | 53.77189 | -3.03564 | 47 ft | 101 kts | 95° |
| 2026-04-28 17:23 | 53.77015 | -3.00352 | 1358 ft | 157 kts | 92° |
| 2026-04-28 17:23 | 53.76893 | -2.98370 | 2303 ft | 182 kts | 94° |
| 2026-04-28 17:23 | 53.76788 | -2.96940 | 3125 ft | 187 kts | 95° |
| 2026-04-28 17:23 | 53.76947 | -2.94682 | 4164 ft | 210 kts | 65° |
| 2026-04-28 17:24 | 53.77998 | -2.92781 | 5180 ft | 241 kts | 31° |
| 2026-04-28 17:24 | 53.79692 | -2.92257 | 6087 ft | 255 kts | 360° |
| 2026-04-28 17:24 | 53.81417 | -2.93541 | 6708 ft | 287 kts | 317° |
| 2026-04-28 17:24 | 53.82343 | -2.96487 | 8491 ft | 289 kts | 285° |
| 2026-04-28 17:25 | 53.82528 | -2.99963 | 9866 ft | 304 kts | 272° |
| 2026-04-28 17:25 | 53.82892 | -3.07456 | 12163 ft | 339 kts | 286° |
| 2026-04-28 17:25 | 53.83532 | -3.11330 | 13703 ft | 344 kts | 291° |
| 2026-04-28 17:26 | 53.84193 | -3.15217 | 14979 ft | 354 kts | 289° |
| 2026-04-28 17:26 | 53.84748 | -3.19323 | 16297 ft | 361 kts | 286° |
| 2026-04-28 17:26 | 53.85277 | -3.23543 | 17546 ft | 369 kts | 287° |
| 2026-04-28 17:26 | 53.85874 | -3.27861 | 18397 ft | 391 kts | 289° |
| 2026-04-28 17:27 | 53.86555 | -3.32529 | 18412 ft | 424 kts | 288° |
| 2026-04-28 17:27 | 53.87247 | -3.37528 | 18422 ft | 441 kts | 287° |
| 2026-04-28 17:27 | 53.87918 | -3.42622 | 18423 ft | 444 kts | 287° |
| 2026-04-28 17:27 | 53.88611 | -3.47722 | 18425 ft | 444 kts | 288° |
| 2026-04-28 17:28 | 53.89578 | -3.52663 | 18421 ft | 439 kts | 296° |
| 2026-04-28 17:28 | 53.91700 | -3.62376 | 18429 ft | 439 kts | 294° |
| 2026-04-28 17:28 | 53.92718 | -3.67183 | 18428 ft | 438 kts | 295° |
| 2026-04-28 17:29 | 53.93766 | -3.72038 | 18412 ft | 438 kts | 295° |
| 2026-04-28 17:29 | 53.94817 | -3.76885 | 18424 ft | 438 kts | 295° |
| 2026-04-28 17:29 | 53.95884 | -3.81741 | 18424 ft | 438 kts | 297° |
| 2026-04-28 17:30 | 53.98800 | -3.90714 | 18427 ft | 433 kts | 305° |
| 2026-04-28 17:30 | 54.01779 | -3.99591 | 18426 ft | 432 kts | 305° |
| 2026-04-28 17:30 | 54.03277 | -4.04028 | 18426 ft | 431 kts | 305° |
| 2026-04-28 17:31 | 54.04848 | -4.08343 | 18421 ft | 426 kts | 311° |
| 2026-04-28 17:31 | 54.08976 | -4.15374 | 18422 ft | 416 kts | 329° |
| 2026-04-28 17:32 | 54.13879 | -4.20435 | 18424 ft | 410 kts | 335° |
| 2026-04-28 17:32 | 54.16335 | -4.22902 | 18425 ft | 409 kts | 335° |
| 2026-04-28 17:32 | 54.18794 | -4.25370 | 18431 ft | 411 kts | 335° |
| 2026-04-28 17:32 | 54.21277 | -4.27849 | 18434 ft | 414 kts | 335° |
| 2026-04-28 17:33 | 54.23754 | -4.30335 | 18432 ft | 412 kts | 335° |
| 2026-04-28 17:33 | 54.26221 | -4.32817 | 18432 ft | 412 kts | 335° |
| 2026-04-28 17:33 | 54.28696 | -4.35307 | 18434 ft | 413 kts | 335° |
| 2026-04-28 17:33 | 54.30336 | -4.36959 | 18436 ft | 413 kts | 335° |
| 2026-04-28 17:34 | 54.33664 | -4.40314 | 18436 ft | 414 kts | 335° |
| 2026-04-28 17:34 | 54.36133 | -4.42812 | 18436 ft | 413 kts | 335° |
| 2026-04-28 17:34 | 54.38574 | -4.45284 | 18439 ft | 412 kts | 335° |
| 2026-04-28 17:34 | 54.41036 | -4.47778 | 18437 ft | 411 kts | 335° |
| 2026-04-28 17:35 | 54.43498 | -4.50276 | 18441 ft | 409 kts | 334° |
| 2026-04-28 17:35 | 54.45955 | -4.52773 | 18437 ft | 411 kts | 334° |
| 2026-04-28 17:35 | 54.48417 | -4.55298 | 18442 ft | 414 kts | 333° |
| 2026-04-28 17:35 | 54.50597 | -4.58600 | 18432 ft | 425 kts | 313° |
| 2026-04-28 17:36 | 54.52185 | -4.62926 | 18448 ft | 426 kts | 304° |
| 2026-04-28 17:36 | 54.53561 | -4.67320 | 18442 ft | 406 kts | 302° |
| 2026-04-28 17:36 | 54.54820 | -4.71488 | 18436 ft | 379 kts | 303° |
| 2026-04-28 17:36 | 54.56045 | -4.75319 | 18439 ft | 352 kts | 305° |
| 2026-04-28 17:37 | 54.57216 | -4.78885 | 18442 ft | 334 kts | 305° |
| 2026-04-28 17:37 | 54.58338 | -4.82374 | 18441 ft | 335 kts | 305° |
| 2026-04-28 17:37 | 54.59475 | -4.85952 | 18450 ft | 344 kts | 304° |
| 2026-04-28 17:37 | 54.60626 | -4.89601 | 18455 ft | 347 kts | 304° |
| 2026-04-28 17:38 | 54.61485 | -4.93512 | 18442 ft | 354 kts | 287° |
| 2026-04-28 17:38 | 54.61670 | -4.97776 | 18448 ft | 360 kts | 269° |
| 2026-04-28 17:38 | 54.61142 | -5.02009 | 18449 ft | 363 kts | 251° |
| 2026-04-28 17:38 | 54.59929 | -5.05836 | 18444 ft | 365 kts | 232° |
| 2026-04-28 17:39 | 54.58130 | -5.08901 | 18443 ft | 364 kts | 214° |
| 2026-04-28 17:39 | 54.55911 | -5.10933 | 18445 ft | 359 kts | 195° |
| 2026-04-28 17:39 | 54.51124 | -5.11468 | 18445 ft | 339 kts | 161° |
| 2026-04-28 17:40 | 54.48947 | -5.10110 | 18445 ft | 328 kts | 146° |
| 2026-04-28 17:40 | 54.47114 | -5.07911 | 18443 ft | 317 kts | 131° |
| 2026-04-28 17:40 | 54.45704 | -5.05083 | 18442 ft | 308 kts | 117° |
| 2026-04-28 17:40 | 54.44760 | -5.01836 | 18443 ft | 302 kts | 104° |
| 2026-04-28 17:41 | 54.44304 | -4.98406 | 18441 ft | 297 kts | 92° |
| 2026-04-28 17:41 | 54.44323 | -4.94892 | 18443 ft | 293 kts | 80° |
| 2026-04-28 17:41 | 54.44784 | -4.91496 | 18444 ft | 292 kts | 72° |
| 2026-04-28 17:41 | 54.45352 | -4.88140 | 18453 ft | 292 kts | 72° |
| 2026-04-28 17:42 | 54.45905 | -4.84791 | 18450 ft | 291 kts | 72° |
| 2026-04-28 17:42 | 54.46277 | -4.82535 | 18450 ft | 291 kts | 72° |
| 2026-04-28 17:42 | 54.47010 | -4.78106 | 18453 ft | 290 kts | 72° |
| 2026-04-28 17:42 | 54.47562 | -4.74773 | 18452 ft | 290 kts | 72° |
| 2026-04-28 17:43 | 54.48112 | -4.71431 | 18449 ft | 290 kts | 72° |
| 2026-04-28 17:43 | 54.48660 | -4.68098 | 18449 ft | 290 kts | 72° |
| 2026-04-28 17:43 | 54.49177 | -4.64740 | 18448 ft | 291 kts | 76° |
| 2026-04-28 17:43 | 54.49293 | -4.61246 | 18441 ft | 296 kts | 89° |
| 2026-04-28 17:44 | 54.48917 | -4.57749 | 18444 ft | 302 kts | 102° |
| 2026-04-28 17:44 | 54.48037 | -4.54430 | 18437 ft | 309 kts | 116° |
| 2026-04-28 17:44 | 54.46662 | -4.51529 | 18439 ft | 318 kts | 129° |
| 2026-04-28 17:44 | 54.44862 | -4.49242 | 18433 ft | 330 kts | 144° |
| 2026-04-28 17:45 | 54.42680 | -4.47823 | 19504 ft | 337 kts | 159° |
| 2026-04-28 17:45 | 54.40304 | -4.47360 | 20566 ft | 354 kts | 176° |
| 2026-04-28 17:45 | 54.37835 | -4.48130 | 21506 ft | 369 kts | 194° |
| 2026-04-28 17:45 | 54.35523 | -4.50163 | 22451 ft | 380 kts | 213° |
| 2026-04-28 17:46 | 54.33642 | -4.53316 | 23387 ft | 388 kts | 233° |
| 2026-04-28 17:46 | 54.32358 | -4.57469 | 24274 ft | 392 kts | 253° |
| 2026-04-28 17:46 | 54.31888 | -4.61979 | 25041 ft | 391 kts | 272° |
| 2026-04-28 17:46 | 54.32248 | -4.66601 | 25824 ft | 386 kts | 292° |
| 2026-04-28 17:47 | 54.33318 | -4.70707 | 26593 ft | 382 kts | 304° |
| 2026-04-28 17:47 | 54.34628 | -4.74762 | 27360 ft | 386 kts | 306° |
| 2026-04-28 17:47 | 54.35958 | -4.78799 | 28130 ft | 391 kts | 305° |
| 2026-04-28 17:47 | 54.36835 | -4.81516 | 28627 ft | 394 kts | 304° |
| 2026-04-28 17:48 | 54.38577 | -4.87023 | 29646 ft | 400 kts | 304° |
| 2026-04-28 17:48 | 54.39918 | -4.91236 | 30359 ft | 404 kts | 304° |
| 2026-04-28 17:48 | 54.41275 | -4.95475 | 31063 ft | 407 kts | 304° |
| 2026-04-28 17:48 | 54.42639 | -4.99758 | 31687 ft | 411 kts | 304° |
| 2026-04-28 17:49 | 54.44008 | -5.04077 | 32294 ft | 414 kts | 304° |
| 2026-04-28 17:49 | 54.45395 | -5.08456 | 32884 ft | 418 kts | 304° |
| 2026-04-28 17:49 | 54.46787 | -5.12856 | 33449 ft | 421 kts | 304° |
| 2026-04-28 17:49 | 54.48192 | -5.17304 | 33999 ft | 424 kts | 304° |
| 2026-04-28 17:50 | 54.49604 | -5.21784 | 34520 ft | 428 kts | 304° |
| 2026-04-28 17:50 | 54.51033 | -5.26313 | 34930 ft | 431 kts | 305° |
| 2026-04-28 17:50 | 54.52800 | -5.30405 | 35280 ft | 422 kts | 323° |
| 2026-04-28 17:50 | 54.55198 | -5.33168 | 35687 ft | 411 kts | 341° |
| 2026-04-28 17:51 | 54.57889 | -5.34686 | 36047 ft | 406 kts | 353° |
| 2026-04-28 17:51 | 54.60677 | -5.35180 | 36393 ft | 401 kts | 5° |
| 2026-04-28 17:51 | 54.63437 | -5.34638 | 36727 ft | 398 kts | 17° |
| 2026-04-28 17:51 | 54.66043 | -5.33101 | 36981 ft | 397 kts | 28° |
| 2026-04-28 17:52 | 54.68393 | -5.30614 | 37318 ft | 396 kts | 40° |
| 2026-04-28 17:52 | 54.70366 | -5.27317 | 37625 ft | 396 kts | 51° |
| 2026-04-28 17:52 | 54.72874 | -5.18865 | 38206 ft | 401 kts | 74° |
| 2026-04-28 17:53 | 54.73288 | -5.14145 | 38484 ft | 405 kts | 85° |
| 2026-04-28 17:53 | 54.73113 | -5.09255 | 38754 ft | 411 kts | 96° |
| 2026-04-28 17:53 | 54.72339 | -5.04459 | 39008 ft | 418 kts | 107° |
| 2026-04-28 17:53 | 54.70987 | -4.99955 | 39228 ft | 426 kts | 118° |
| 2026-04-28 17:54 | 54.69102 | -4.95926 | 39365 ft | 436 kts | 129° |
| 2026-04-28 17:54 | 54.66760 | -4.92504 | 39524 ft | 444 kts | 138° |
| 2026-04-28 17:54 | 54.64222 | -4.89413 | 39702 ft | 448 kts | 140° |
| 2026-04-28 17:54 | 54.61687 | -4.86281 | 39862 ft | 448 kts | 138° |
| 2026-04-28 17:55 | 54.59243 | -4.82941 | 40022 ft | 448 kts | 134° |
| 2026-04-28 17:55 | 54.56944 | -4.79326 | 40169 ft | 447 kts | 130° |
| 2026-04-28 17:55 | 54.54834 | -4.75413 | 40308 ft | 445 kts | 125° |
| 2026-04-28 17:55 | 54.53017 | -4.71119 | 40432 ft | 442 kts | 117° |
| 2026-04-28 17:56 | 54.51589 | -4.66496 | 40955 ft | 430 kts | 111° |
| 2026-04-28 17:56 | 54.50349 | -4.61916 | 41202 ft | 429 kts | 111° |
| 2026-04-28 17:56 | 54.49044 | -4.57278 | 41325 ft | 433 kts | 114° |
| 2026-04-28 17:56 | 54.47486 | -4.52824 | 41507 ft | 437 kts | 122° |
| 2026-04-28 17:57 | 54.45457 | -4.48877 | 41669 ft | 444 kts | 133° |
| 2026-04-28 17:57 | 54.42991 | -4.45641 | 41837 ft | 451 kts | 144° |
| 2026-04-28 17:57 | 54.40155 | -4.43227 | 42011 ft | 458 kts | 155° |
| 2026-04-28 17:57 | 54.37062 | -4.41752 | 42166 ft | 465 kts | 166° |
| 2026-04-28 17:58 | 54.33818 | -4.41286 | 42349 ft | 470 kts | 177° |
| 2026-04-28 17:58 | 54.30551 | -4.41853 | 42541 ft | 475 kts | 188° |
| 2026-04-28 17:58 | 54.27374 | -4.43439 | 42744 ft | 478 kts | 200° |
| 2026-04-28 17:58 | 54.24400 | -4.45995 | 42930 ft | 480 kts | 211° |
| 2026-04-28 17:59 | 54.21734 | -4.49435 | 43131 ft | 481 kts | 221° |
| 2026-04-28 17:59 | 54.19469 | -4.53643 | 43335 ft | 481 kts | 233° |
| 2026-04-28 17:59 | 54.17689 | -4.58467 | 43548 ft | 480 kts | 244° |
| 2026-04-28 17:59 | 54.16450 | -4.63747 | 43752 ft | 478 kts | 255° |
| 2026-04-28 18:00 | 54.15797 | -4.69277 | 43963 ft | 475 kts | 265° |
| 2026-04-28 18:00 | 54.15744 | -4.74893 | 44150 ft | 472 kts | 276° |
| 2026-04-28 18:00 | 54.16280 | -4.80311 | 44339 ft | 468 kts | 287° |
| 2026-04-28 18:00 | 54.17395 | -4.85501 | 44528 ft | 464 kts | 298° |
| 2026-04-28 18:01 | 54.19038 | -4.90197 | 44698 ft | 460 kts | 309° |
| 2026-04-28 18:01 | 54.21158 | -4.94267 | 44852 ft | 456 kts | 320° |
| 2026-04-28 18:01 | 54.23660 | -4.97538 | 44998 ft | 453 kts | 330° |
| 2026-04-28 18:01 | 54.26469 | -4.99922 | 45131 ft | 450 kts | 341° |
| 2026-04-28 18:02 | 54.29476 | -5.01329 | 45233 ft | 447 kts | 352° |
| 2026-04-28 18:02 | 54.32565 | -5.01707 | 45343 ft | 445 kts | 3° |
| 2026-04-28 18:02 | 54.35625 | -5.01048 | 45449 ft | 443 kts | 14° |
| 2026-04-28 18:02 | 54.38541 | -4.99391 | 45459 ft | 443 kts | 25° |
| 2026-04-28 18:03 | 54.44292 | -4.95726 | 45463 ft | 447 kts | 3° |
| 2026-04-28 18:03 | 54.47362 | -4.96459 | 45470 ft | 450 kts | 342° |
| 2026-04-28 18:03 | 54.50100 | -4.99055 | 45471 ft | 454 kts | 322° |
| 2026-04-28 18:04 | 54.52145 | -5.03192 | 45469 ft | 459 kts | 301° |
| 2026-04-28 18:04 | 54.53229 | -5.08358 | 45470 ft | 463 kts | 281° |
| 2026-04-28 18:04 | 54.53409 | -5.19497 | 45469 ft | 469 kts | 270° |
| 2026-04-28 18:05 | 54.53467 | -5.28843 | 45459 ft | 470 kts | 277° |
| 2026-04-28 18:05 | 54.54839 | -5.35863 | 45478 ft | 462 kts | 305° |
| 2026-04-28 18:05 | 54.56984 | -5.39903 | 45466 ft | 456 kts | 326° |
| 2026-04-28 18:06 | 54.59775 | -5.42338 | 45477 ft | 449 kts | 346° |
| 2026-04-28 18:06 | 54.62808 | -5.42889 | 45480 ft | 443 kts | 7° |
| 2026-04-28 18:06 | 54.65751 | -5.41517 | 45484 ft | 439 kts | 27° |
| 2026-04-28 18:06 | 54.68212 | -5.38355 | 45480 ft | 437 kts | 49° |
| 2026-04-28 18:07 | 54.69786 | -5.33964 | 45481 ft | 438 kts | 69° |
| 2026-04-28 18:07 | 54.70335 | -5.28796 | 45481 ft | 441 kts | 90° |
| 2026-04-28 18:07 | 54.69209 | -5.18331 | 45465 ft | 448 kts | 110° |
| 2026-04-28 18:08 | 54.67742 | -5.13574 | 45475 ft | 452 kts | 121° |
| 2026-04-28 18:08 | 54.65935 | -5.09112 | 45469 ft | 454 kts | 124° |
| 2026-04-28 18:08 | 54.62377 | -5.00099 | 45457 ft | 455 kts | 117° |
| 2026-04-28 18:09 | 54.59556 | -4.90386 | 45463 ft | 452 kts | 114° |
| 2026-04-28 18:09 | 54.57014 | -4.82454 | 45467 ft | 451 kts | 118° |
| 2026-04-28 18:10 | 54.53967 | -4.73055 | 45448 ft | 448 kts | 116° |
| 2026-04-28 18:10 | 54.51008 | -4.63690 | 45442 ft | 449 kts | 117° |
| 2026-04-28 18:11 | 54.47923 | -4.54298 | 45446 ft | 452 kts | 120° |
| 2026-04-28 18:11 | 54.45844 | -4.50233 | 45452 ft | 458 kts | 140° |
| 2026-04-28 18:11 | 54.43039 | -4.47595 | 45453 ft | 464 kts | 160° |
| 2026-04-28 18:12 | 54.39852 | -4.46715 | 45455 ft | 470 kts | 180° |
| 2026-04-28 18:12 | 54.36637 | -4.47758 | 45457 ft | 474 kts | 200° |
| 2026-04-28 18:12 | 54.33802 | -4.50627 | 45455 ft | 476 kts | 221° |
| 2026-04-28 18:12 | 54.31697 | -4.54976 | 45455 ft | 476 kts | 242° |
| 2026-04-28 18:13 | 54.30579 | -4.60270 | 45454 ft | 474 kts | 262° |
| 2026-04-28 18:13 | 54.30580 | -4.65879 | 45455 ft | 470 kts | 283° |
| 2026-04-28 18:13 | 54.31668 | -4.71099 | 45474 ft | 464 kts | 299° |
| 2026-04-28 18:13 | 54.33245 | -4.75922 | 45452 ft | 463 kts | 303° |
| 2026-04-28 18:14 | 54.36482 | -4.85450 | 45441 ft | 462 kts | 300° |
| 2026-04-28 18:14 | 54.39448 | -4.95121 | 45441 ft | 460 kts | 301° |
| 2026-04-28 18:15 | 54.42562 | -5.04690 | 45443 ft | 458 kts | 300° |
| 2026-04-28 18:15 | 54.45577 | -5.14342 | 45452 ft | 459 kts | 300° |
| 2026-04-28 18:16 | 54.48647 | -5.24006 | 45455 ft | 462 kts | 300° |
| 2026-04-28 18:16 | 54.51942 | -5.33491 | 45438 ft | 460 kts | 315° |
| 2026-04-28 18:17 | 54.54444 | -5.36822 | 45478 ft | 454 kts | 335° |
| 2026-04-28 18:17 | 54.57410 | -5.38530 | 45477 ft | 449 kts | 353° |
| 2026-04-28 18:17 | 54.60505 | -5.38487 | 45481 ft | 445 kts | 12° |
| 2026-04-28 18:17 | 54.63403 | -5.36741 | 45470 ft | 442 kts | 30° |
| 2026-04-28 18:18 | 54.65815 | -5.33498 | 45475 ft | 441 kts | 48° |
| 2026-04-28 18:18 | 54.67496 | -5.29102 | 45474 ft | 441 kts | 66° |
| 2026-04-28 18:18 | 54.68279 | -5.23992 | 45474 ft | 443 kts | 84° |
| 2026-04-28 18:18 | 54.68252 | -5.20475 | 45485 ft | 445 kts | 96° |
| 2026-04-28 18:19 | 54.66924 | -5.13708 | 45486 ft | 449 kts | 115° |
| 2026-04-28 18:19 | 54.65472 | -5.08998 | 45471 ft | 450 kts | 117° |
| 2026-04-28 18:19 | 54.62380 | -4.99579 | 45459 ft | 451 kts | 116° |
| 2026-04-28 18:20 | 54.59431 | -4.90054 | 45356 ft | 446 kts | 116° |
| 2026-04-28 18:20 | 54.57943 | -4.85426 | 43845 ft | 434 kts | 116° |
| 2026-04-28 18:20 | 54.56470 | -4.80867 | 41549 ft | 434 kts | 115° |
| 2026-04-28 18:21 | 54.55037 | -4.76370 | 39623 ft | 421 kts | 114° |
| 2026-04-28 18:21 | 54.53651 | -4.72009 | 37254 ft | 411 kts | 113° |
| 2026-04-28 18:21 | 54.52276 | -4.67763 | 35189 ft | 400 kts | 116° |
| 2026-04-28 18:21 | 54.50375 | -4.64244 | 32970 ft | 409 kts | 138° |
| 2026-04-28 18:22 | 54.47785 | -4.62230 | 31036 ft | 411 kts | 161° |
| 2026-04-28 18:22 | 54.44934 | -4.62012 | 28971 ft | 412 kts | 184° |
| 2026-04-28 18:22 | 54.42222 | -4.63448 | 27036 ft | 406 kts | 203° |
| 2026-04-28 18:22 | 54.39939 | -4.66227 | 25243 ft | 400 kts | 221° |
| 2026-04-28 18:23 | 54.38033 | -4.69625 | 23464 ft | 390 kts | 227° |
| 2026-04-28 18:23 | 54.36267 | -4.73076 | 21608 ft | 380 kts | 227° |
| 2026-04-28 18:23 | 54.34428 | -4.76232 | 19863 ft | 369 kts | 219° |
| 2026-04-28 18:23 | 54.32476 | -4.78985 | 18177 ft | 359 kts | 216° |
| 2026-04-28 18:24 | 54.30546 | -4.81618 | 16471 ft | 348 kts | 218° |
| 2026-04-28 18:24 | 54.29347 | -4.83396 | 15429 ft | 341 kts | 220° |
| 2026-04-28 18:24 | 54.27042 | -4.86991 | 13319 ft | 328 kts | 220° |
| 2026-04-28 18:24 | 54.25381 | -4.89487 | 11856 ft | 318 kts | 219° |
| 2026-04-28 18:25 | 54.23740 | -4.91887 | 11457 ft | 305 kts | 219° |
| 2026-04-28 18:25 | 54.22119 | -4.94248 | 11450 ft | 310 kts | 214° |
| 2026-04-28 18:25 | 54.20134 | -4.95620 | 11442 ft | 308 kts | 184° |
| 2026-04-28 18:26 | 54.15916 | -4.95524 | 11454 ft | 303 kts | 175° |
| 2026-04-28 18:26 | 54.13804 | -4.95737 | 11454 ft | 306 kts | 182° |
| 2026-04-28 18:26 | 54.11696 | -4.96248 | 11450 ft | 306 kts | 184° |
| 2026-04-28 18:26 | 54.09587 | -4.96689 | 11449 ft | 305 kts | 181° |
| 2026-04-28 18:27 | 54.07479 | -4.97013 | 11451 ft | 304 kts | 181° |
| 2026-04-28 18:27 | 54.05370 | -4.97348 | 11450 ft | 304 kts | 181° |
| 2026-04-28 18:27 | 54.03222 | -4.97729 | 11446 ft | 305 kts | 181° |
| 2026-04-28 18:27 | 54.01165 | -4.97671 | 11440 ft | 300 kts | 167° |
| 2026-04-28 18:28 | 53.99161 | -4.96807 | 11437 ft | 295 kts | 154° |
| 2026-04-28 18:28 | 53.97348 | -4.95232 | 11434 ft | 290 kts | 142° |
| 2026-04-28 18:28 | 53.95810 | -4.93063 | 11433 ft | 286 kts | 129° |
| 2026-04-28 18:28 | 53.94601 | -4.90426 | 11437 ft | 281 kts | 118° |
| 2026-04-28 18:29 | 53.93567 | -4.87614 | 11434 ft | 281 kts | 118° |
| 2026-04-28 18:29 | 53.92518 | -4.84814 | 11436 ft | 280 kts | 118° |
| 2026-04-28 18:29 | 53.91472 | -4.82025 | 11433 ft | 280 kts | 118° |
| 2026-04-28 18:29 | 53.90432 | -4.79242 | 11433 ft | 279 kts | 118° |
| 2026-04-28 18:30 | 53.89393 | -4.76464 | 11444 ft | 279 kts | 118° |
| 2026-04-28 18:30 | 53.88706 | -4.74630 | 11444 ft | 278 kts | 118° |
| 2026-04-28 18:30 | 53.87325 | -4.70951 | 11450 ft | 276 kts | 117° |
| 2026-04-28 18:30 | 53.86293 | -4.68205 | 11438 ft | 276 kts | 117° |
| 2026-04-28 18:31 | 53.85279 | -4.65506 | 11442 ft | 276 kts | 118° |
| 2026-04-28 18:31 | 53.84200 | -4.62618 | 11441 ft | 306 kts | 118° |
| 2026-04-28 18:31 | 53.83004 | -4.59432 | 11440 ft | 337 kts | 118° |
| 2026-04-28 18:31 | 53.81701 | -4.55984 | 11441 ft | 352 kts | 118° |
| 2026-04-28 18:32 | 53.80598 | -4.52292 | 11435 ft | 353 kts | 108° |
| 2026-04-28 18:32 | 53.79891 | -4.48328 | 11435 ft | 352 kts | 99° |
| 2026-04-28 18:32 | 53.79583 | -4.44191 | 11433 ft | 349 kts | 92° |
| 2026-04-28 18:32 | 53.79404 | -4.40100 | 11434 ft | 349 kts | 92° |
| 2026-04-28 18:33 | 53.79205 | -4.36009 | 11434 ft | 349 kts | 92° |
| 2026-04-28 18:33 | 53.79010 | -4.31927 | 11434 ft | 348 kts | 92° |
| 2026-04-28 18:33 | 53.78819 | -4.27844 | 11428 ft | 348 kts | 92° |
| 2026-04-28 18:33 | 53.78628 | -4.23811 | 11434 ft | 348 kts | 92° |
| 2026-04-28 18:34 | 53.78431 | -4.19731 | 11434 ft | 348 kts | 92° |
| 2026-04-28 18:34 | 53.78233 | -4.15650 | 11437 ft | 348 kts | 92° |
| 2026-04-28 18:34 | 53.78034 | -4.11577 | 11438 ft | 347 kts | 92° |
| 2026-04-28 18:34 | 53.77835 | -4.07508 | 11437 ft | 347 kts | 92° |
| 2026-04-28 18:35 | 53.77634 | -4.03430 | 11433 ft | 349 kts | 92° |
| 2026-04-28 18:35 | 53.77430 | -3.99342 | 11434 ft | 350 kts | 92° |
| 2026-04-28 18:35 | 53.77275 | -3.95246 | 11429 ft | 349 kts | 89° |
| 2026-04-28 18:35 | 53.77377 | -3.91101 | 11430 ft | 347 kts | 84° |
| 2026-04-28 18:36 | 53.77541 | -3.87045 | 11430 ft | 346 kts | 85° |
| 2026-04-28 18:36 | 53.77583 | -3.82975 | 11429 ft | 346 kts | 88° |
| 2026-04-28 18:36 | 53.77572 | -3.78966 | 11429 ft | 338 kts | 88° |
| 2026-04-28 18:36 | 53.77601 | -3.75042 | 11226 ft | 308 kts | 86° |
| 2026-04-28 18:37 | 53.77651 | -3.71660 | 11164 ft | 282 kts | 86° |
| 2026-04-28 18:37 | 53.77686 | -3.68403 | 10986 ft | 263 kts | 87° |
| 2026-04-28 18:37 | 53.77713 | -3.65429 | 10395 ft | 264 kts | 87° |
| 2026-04-28 18:37 | 53.77739 | -3.62167 | 9816 ft | 261 kts | 87° |
| 2026-04-28 18:38 | 53.77764 | -3.59241 | 9265 ft | 259 kts | 87° |
| 2026-04-28 18:38 | 53.77789 | -3.56249 | 8712 ft | 257 kts | 88° |
| 2026-04-28 18:38 | 53.77813 | -3.53236 | 8161 ft | 256 kts | 88° |
| 2026-04-28 18:38 | 53.77837 | -3.50239 | 7640 ft | 254 kts | 88° |
| 2026-04-28 18:39 | 53.77859 | -3.47268 | 7122 ft | 252 kts | 88° |
| 2026-04-28 18:39 | 53.77880 | -3.44310 | 6597 ft | 251 kts | 88° |
| 2026-04-28 18:39 | 53.77901 | -3.41367 | 6055 ft | 250 kts | 89° |
| 2026-04-28 18:39 | 53.77921 | -3.38308 | 5489 ft | 249 kts | 89° |
| 2026-04-28 18:40 | 53.77940 | -3.35510 | 4987 ft | 248 kts | 89° |
| 2026-04-28 18:40 | 53.77958 | -3.32476 | 4469 ft | 246 kts | 89° |
| 2026-04-28 18:40 | 53.77974 | -3.29741 | 4198 ft | 235 kts | 88° |
| 2026-04-28 18:40 | 53.77988 | -3.27196 | 3829 ft | 202 kts | 88° |
| 2026-04-28 18:41 | 53.78000 | -3.24969 | 3460 ft | 181 kts | 88° |
| 2026-04-28 18:41 | 53.78012 | -3.22865 | 2823 ft | 174 kts | 88° |
| 2026-04-28 18:41 | 53.78015 | -3.20855 | 2164 ft | 169 kts | 91° |
| 2026-04-28 18:41 | 53.77926 | -3.19074 | 1841 ft | 144 kts | 92° |
| 2026-04-28 18:42 | 53.77863 | -3.17397 | 1309 ft | 140 kts | 91° |
| 2026-04-28 18:42 | 53.77731 | -3.15777 | 880 ft | 140 kts | 95° |
| 2026-04-28 18:42 | 53.77631 | -3.14144 | 593 ft | 134 kts | 89° |
| 2026-04-28 18:42 | 53.77603 | -3.12504 | 635 ft | 151 kts | 92° |
| 2026-04-28 18:43 | 53.77506 | -3.10755 | 690 ft | 140 kts | 94° |
| 2026-04-28 18:43 | 53.77441 | -3.09181 | 592 ft | 127 kts | 90° |
| 2026-04-28 18:43 | 53.77395 | -3.07856 | 398 ft | 106 kts | 93° |
| 2026-04-28 18:43 | 53.77337 | -3.06561 | 280 ft | 119 kts | 94° |
| 2026-04-28 18:44 | 53.77266 | -3.05194 | 177 ft | 114 kts | 94° |
| 2026-04-28 18:44 | 53.77162 | -3.02981 | 44 ft | 26 kts | 95° |
| 2026-04-28 18:44 | 53.77153 | -3.02949 | 44 ft | 0 kts | 202° |
| 2026-04-28 18:45 | 53.77152 | -3.02959 | 44 ft | 3 kts | 272° |
| 2026-04-28 18:45 | 53.77163 | -3.03090 | 44 ft | 19 kts | 276° |
| 2026-04-28 18:45 | 53.77178 | -3.03383 | 46 ft | 29 kts | 275° |
| 2026-04-28 18:45 | 53.77196 | -3.03709 | 46 ft | 22 kts | 276° |
| 2026-04-28 18:46 | 53.77250 | -3.03929 | 45 ft | 19 kts | 307° |
| 2026-04-28 18:46 | 53.77340 | -3.04134 | 43 ft | 24 kts | 308° |
| 2026-04-28 18:46 | 53.77440 | -3.04347 | 44 ft | 16 kts | 328° |
| 2026-04-28 18:46 | 53.77530 | -3.04283 | 44 ft | 14 kts | 32° |
| 2026-04-28 18:47 | 53.77591 | -3.04218 | 44 ft | 9 kts | 32° |
| 2026-04-28 18:47 | 53.77649 | -3.04212 | 44 ft | 9 kts | 335° |
| 2026-04-28 18:47 | 53.77678 | -3.04241 | 44 ft | 0 kts | 329° |
| 2026-04-28 18:48 | 53.77684 | -3.04285 | 44 ft | 8 kts | 282° |
| 2026-04-28 18:48 | 53.77706 | -3.04312 | 44 ft | 0 kts | 353° |
| 2026-04-28 18:48 | 53.77726 | -3.04298 | 44 ft | 8 kts | 21° |
| 2026-04-28 18:49 | 53.77750 | -3.04319 | 44 ft | 2 kts | 239° |
| 2026-04-28 18:49 | 53.77747 | -3.04320 | 44 ft | 1 kts | 199° |
| 2026-04-28 18:49 | 53.77735 | -3.04318 | 44 ft | 0 kts | 172° |